sensor_id;sensor_type;location;lat;lon;timestamp;temperature;humidity
45693;DHT22;31402;44.752;-0.374;2022-11-04T00:01:46;13.40;99.90
45693;DHT22;31402;44.752;-0.374;2022-11-04T00:04:14;13.40;99.90
45693;DHT22;31402;44.752;-0.374;2022-11-04T00:06:40;13.30;99.90
45693;DHT22;31402;44.752;-0.374;2022-11-04T00:09:11;13.50;99.90
45693;DHT22;31402;44.752;-0.374;2022-11-04T00:11:37;13.60;99.90
45693;DHT22;31402;44.752;-0.374;2022-11-04T00:14:21;13.60;99.90
45693;DHT22;31402;44.752;-0.374;2022-11-04T00:16:47;13.50;99.90
45693;DHT22;31402;44.752;-0.374;2022-11-04T00:19:32;13.50;99.90
45693;DHT22;31402;44.752;-0.374;2022-11-04T00:22:18;13.50;99.90
45693;DHT22;31402;44.752;-0.374;2022-11-04T00:25:03;13.50;99.90
45693;DHT22;31402;44.752;-0.374;2022-11-04T00:27:48;13.50;99.90
45693;DHT22;31402;44.752;-0.374;2022-11-04T00:30:32;13.50;99.90
45693;DHT22;31402;44.752;-0.374;2022-11-04T00:32:58;13.50;99.90
45693;DHT22;31402;44.752;-0.374;2022-11-04T00:35:49;13.50;99.90
45693;DHT22;31402;44.752;-0.374;2022-11-04T00:38:16;13.50;99.90
45693;DHT22;31402;44.752;-0.374;2022-11-04T00:40:42;13.60;99.90
45693;DHT22;31402;44.752;-0.374;2022-11-04T00:43:07;13.70;99.90
45693;DHT22;31402;44.752;-0.374;2022-11-04T00:45:33;13.80;99.90
45693;DHT22;31402;44.752;-0.374;2022-11-04T00:47:59;13.90;99.90
45693;DHT22;31402;44.752;-0.374;2022-11-04T00:50:25;13.90;99.90
45693;DHT22;31402;44.752;-0.374;2022-11-04T00:52:50;14.00;99.90
45693;DHT22;31402;44.752;-0.374;2022-11-04T00:55:16;14.00;99.90
45693;DHT22;31402;44.752;-0.374;2022-11-04T00:57:42;13.90;99.90
45693;DHT22;31402;44.752;-0.374;2022-11-04T01:00:08;13.90;99.90
45693;DHT22;31402;44.752;-0.374;2022-11-04T01:02:34;13.90;99.90
45693;DHT22;31402;44.752;-0.374;2022-11-04T01:05:00;14.00;99.90
45693;DHT22;31402;44.752;-0.374;2022-11-04T01:07:26;14.00;99.90
45693;DHT22;31402;44.752;-0.374;2022-11-04T01:09:51;13.90;99.90
45693;DHT22;31402;44.752;-0.374;2022-11-04T01:12:17;13.90;99.90
45693;DHT22;31402;44.752;-0.374;2022-11-04T01:14:43;13.90;99.90
45693;DHT22;31402;44.752;-0.374;2022-11-04T01:17:09;14.00;99.90
45693;DHT22;31402;44.752;-0.374;2022-11-04T01:19:35;14.10;99.90
45693;DHT22;31402;44.752;-0.374;2022-11-04T01:22:01;13.90;99.90
45693;DHT22;31402;44.752;-0.374;2022-11-04T01:24:27;13.90;99.90
45693;DHT22;31402;44.752;-0.374;2022-11-04T01:26:52;13.80;99.90
45693;DHT22;31402;44.752;-0.374;2022-11-04T01:29:18;13.80;99.90
45693;DHT22;31402;44.752;-0.374;2022-11-04T01:31:44;13.60;99.90
45693;DHT22;31402;44.752;-0.374;2022-11-04T01:34:09;13.50;99.90
45693;DHT22;31402;44.752;-0.374;2022-11-04T01:36:35;13.50;99.90
45693;DHT22;31402;44.752;-0.374;2022-11-04T01:39:01;13.60;99.90
45693;DHT22;31402;44.752;-0.374;2022-11-04T01:41:30;13.80;99.90
45693;DHT22;31402;44.752;-0.374;2022-11-04T01:46:59;13.80;99.90
45693;DHT22;31402;44.752;-0.374;2022-11-04T01:52:31;13.90;99.90
45693;DHT22;31402;44.752;-0.374;2022-11-04T01:55:02;14.00;99.90
45693;DHT22;31402;44.752;-0.374;2022-11-04T01:57:34;13.90;99.90
45693;DHT22;31402;44.752;-0.374;2022-11-04T02:00:03;13.80;99.90
45693;DHT22;31402;44.752;-0.374;2022-11-04T02:02:29;13.80;99.90
45693;DHT22;31402;44.752;-0.374;2022-11-04T02:04:55;13.80;99.90
45693;DHT22;31402;44.752;-0.374;2022-11-04T02:07:21;13.80;99.90
45693;DHT22;31402;44.752;-0.374;2022-11-04T02:09:48;13.70;99.90
45693;DHT22;31402;44.752;-0.374;2022-11-04T02:12:14;13.70;99.90
45693;DHT22;31402;44.752;-0.374;2022-11-04T02:14:58;13.70;99.90
45693;DHT22;31402;44.752;-0.374;2022-11-04T02:20:16;13.80;99.90
45693;DHT22;31402;44.752;-0.374;2022-11-04T02:37:05;14.30;99.90
45693;DHT22;31402;44.752;-0.374;2022-11-04T02:42:28;14.00;99.90
45693;DHT22;31402;44.752;-0.374;2022-11-04T02:47:44;13.70;99.90
45693;DHT22;31402;44.752;-0.374;2022-11-04T02:50:53;13.60;99.90
45693;DHT22;31402;44.752;-0.374;2022-11-04T02:53:21;13.40;99.90
45693;DHT22;31402;44.752;-0.374;2022-11-04T02:55:51;13.40;99.90
45693;DHT22;31402;44.752;-0.374;2022-11-04T02:58:28;13.40;99.90
45693;DHT22;31402;44.752;-0.374;2022-11-04T03:00:56;13.30;99.90
45693;DHT22;31402;44.752;-0.374;2022-11-04T03:03:30;13.30;99.90
45693;DHT22;31402;44.752;-0.374;2022-11-04T03:05:59;13.30;99.90
45693;DHT22;31402;44.752;-0.374;2022-11-04T03:08:32;13.50;99.90
45693;DHT22;31402;44.752;-0.374;2022-11-04T03:11:04;13.40;99.90
45693;DHT22;31402;44.752;-0.374;2022-11-04T03:16:16;13.50;99.90
45693;DHT22;31402;44.752;-0.374;2022-11-04T03:21:37;13.70;99.90
45693;DHT22;31402;44.752;-0.374;2022-11-04T03:24:05;13.80;99.90
45693;DHT22;31402;44.752;-0.374;2022-11-04T03:26:56;13.90;99.90
45693;DHT22;31402;44.752;-0.374;2022-11-04T03:29:36;14.00;99.90
45693;DHT22;31402;44.752;-0.374;2022-11-04T03:32:23;14.00;99.90
45693;DHT22;31402;44.752;-0.374;2022-11-04T03:34:50;14.00;99.90
45693;DHT22;31402;44.752;-0.374;2022-11-04T03:37:16;14.00;99.90
45693;DHT22;31402;44.752;-0.374;2022-11-04T03:39:42;14.10;99.90
45693;DHT22;31402;44.752;-0.374;2022-11-04T03:42:10;14.10;99.90
45693;DHT22;31402;44.752;-0.374;2022-11-04T03:44:54;14.10;99.90
45693;DHT22;31402;44.752;-0.374;2022-11-04T03:47:26;14.20;99.90
45693;DHT22;31402;44.752;-0.374;2022-11-04T03:50:04;14.20;99.90
45693;DHT22;31402;44.752;-0.374;2022-11-04T03:52:31;14.10;99.90
45693;DHT22;31402;44.752;-0.374;2022-11-04T03:54:57;14.20;99.90
45693;DHT22;31402;44.752;-0.374;2022-11-04T03:57:56;14.40;99.90
45693;DHT22;31402;44.752;-0.374;2022-11-04T04:00:31;14.30;99.90
45693;DHT22;31402;44.752;-0.374;2022-11-04T04:03:15;14.30;99.90
45693;DHT22;31402;44.752;-0.374;2022-11-04T04:05:51;14.10;99.90
45693;DHT22;31402;44.752;-0.374;2022-11-04T04:08:41;14.10;99.90
45693;DHT22;31402;44.752;-0.374;2022-11-04T04:11:29;14.00;99.90
45693;DHT22;31402;44.752;-0.374;2022-11-04T04:16:36;13.90;99.90
45693;DHT22;31402;44.752;-0.374;2022-11-04T04:19:20;13.90;99.90
45693;DHT22;31402;44.752;-0.374;2022-11-04T04:21:58;13.80;99.90
45693;DHT22;31402;44.752;-0.374;2022-11-04T04:24:30;13.80;99.90
45693;DHT22;31402;44.752;-0.374;2022-11-04T04:27:17;13.80;99.90
45693;DHT22;31402;44.752;-0.374;2022-11-04T04:30:02;13.80;99.90
45693;DHT22;31402;44.752;-0.374;2022-11-04T04:32:36;13.60;99.90
45693;DHT22;31402;44.752;-0.374;2022-11-04T04:35:05;13.60;99.90
45693;DHT22;31402;44.752;-0.374;2022-11-04T04:37:51;13.60;99.90
45693;DHT22;31402;44.752;-0.374;2022-11-04T04:40:21;13.50;99.90
45693;DHT22;31402;44.752;-0.374;2022-11-04T04:43:14;13.60;99.90
45693;DHT22;31402;44.752;-0.374;2022-11-04T04:45:58;13.50;99.90
45693;DHT22;31402;44.752;-0.374;2022-11-04T04:48:25;13.50;99.90
45693;DHT22;31402;44.752;-0.374;2022-11-04T04:50:53;13.40;99.90
45693;DHT22;31402;44.752;-0.374;2022-11-04T04:53:22;13.30;99.90
45693;DHT22;31402;44.752;-0.374;2022-11-04T04:55:47;13.30;99.90
45693;DHT22;31402;44.752;-0.374;2022-11-04T04:58:13;13.30;99.90
45693;DHT22;31402;44.752;-0.374;2022-11-04T05:00:39;13.20;99.90
45693;DHT22;31402;44.752;-0.374;2022-11-04T05:03:05;13.20;99.90
45693;DHT22;31402;44.752;-0.374;2022-11-04T05:05:30;13.10;99.90
45693;DHT22;31402;44.752;-0.374;2022-11-04T05:08:06;13.20;99.90
45693;DHT22;31402;44.752;-0.374;2022-11-04T05:10:32;13.30;99.90
45693;DHT22;31402;44.752;-0.374;2022-11-04T05:12:59;13.30;99.90
45693;DHT22;31402;44.752;-0.374;2022-11-04T05:15:43;13.30;99.90
45693;DHT22;31402;44.752;-0.374;2022-11-04T05:18:09;13.20;99.90
45693;DHT22;31402;44.752;-0.374;2022-11-04T05:20:35;13.20;99.90
45693;DHT22;31402;44.752;-0.374;2022-11-04T05:23:04;13.20;99.90
45693;DHT22;31402;44.752;-0.374;2022-11-04T05:25:29;13.20;99.90
45693;DHT22;31402;44.752;-0.374;2022-11-04T05:27:59;13.20;99.90
45693;DHT22;31402;44.752;-0.374;2022-11-04T05:30:25;13.20;99.90
45693;DHT22;31402;44.752;-0.374;2022-11-04T05:32:50;13.10;99.90
45693;DHT22;31402;44.752;-0.374;2022-11-04T05:35:16;13.10;99.90
45693;DHT22;31402;44.752;-0.374;2022-11-04T05:37:42;13.20;99.90
45693;DHT22;31402;44.752;-0.374;2022-11-04T05:40:08;13.20;99.90
45693;DHT22;31402;44.752;-0.374;2022-11-04T05:42:34;13.30;99.90
45693;DHT22;31402;44.752;-0.374;2022-11-04T05:45:01;13.20;99.90
45693;DHT22;31402;44.752;-0.374;2022-11-04T05:47:27;13.00;99.90
45693;DHT22;31402;44.752;-0.374;2022-11-04T05:49:53;13.00;99.90
45693;DHT22;31402;44.752;-0.374;2022-11-04T05:52:19;13.20;99.90
45693;DHT22;31402;44.752;-0.374;2022-11-04T05:54:45;13.30;99.90
45693;DHT22;31402;44.752;-0.374;2022-11-04T05:57:10;13.30;99.90
45693;DHT22;31402;44.752;-0.374;2022-11-04T05:59:36;13.40;99.90
45693;DHT22;31402;44.752;-0.374;2022-11-04T06:02:02;13.20;99.90
45693;DHT22;31402;44.752;-0.374;2022-11-04T06:04:28;13.00;99.90
45693;DHT22;31402;44.752;-0.374;2022-11-04T06:06:54;13.10;99.90
45693;DHT22;31402;44.752;-0.374;2022-11-04T06:09:19;13.10;99.90
45693;DHT22;31402;44.752;-0.374;2022-11-04T06:11:45;13.20;99.90
45693;DHT22;31402;44.752;-0.374;2022-11-04T06:14:11;13.10;99.90
45693;DHT22;31402;44.752;-0.374;2022-11-04T06:16:37;13.10;99.90
45693;DHT22;31402;44.752;-0.374;2022-11-04T06:19:03;12.90;99.90
45693;DHT22;31402;44.752;-0.374;2022-11-04T06:21:30;13.10;99.90
45693;DHT22;31402;44.752;-0.374;2022-11-04T06:23:57;13.10;99.90
45693;DHT22;31402;44.752;-0.374;2022-11-04T06:26:24;13.00;99.90
45693;DHT22;31402;44.752;-0.374;2022-11-04T06:28:51;12.90;99.90
45693;DHT22;31402;44.752;-0.374;2022-11-04T06:31:17;12.90;99.90
45693;DHT22;31402;44.752;-0.374;2022-11-04T06:33:43;12.80;99.90
45693;DHT22;31402;44.752;-0.374;2022-11-04T06:36:12;12.90;99.90
45693;DHT22;31402;44.752;-0.374;2022-11-04T06:38:38;12.90;99.90
45693;DHT22;31402;44.752;-0.374;2022-11-04T06:41:05;12.80;99.90
45693;DHT22;31402;44.752;-0.374;2022-11-04T06:43:31;12.80;99.90
45693;DHT22;31402;44.752;-0.374;2022-11-04T06:45:59;12.80;99.90
45693;DHT22;31402;44.752;-0.374;2022-11-04T06:48:25;12.90;99.90
45693;DHT22;31402;44.752;-0.374;2022-11-04T06:50:51;12.80;99.90
45693;DHT22;31402;44.752;-0.374;2022-11-04T06:53:17;12.80;99.90
45693;DHT22;31402;44.752;-0.374;2022-11-04T06:55:43;12.90;99.90
45693;DHT22;31402;44.752;-0.374;2022-11-04T06:58:09;12.90;99.90
45693;DHT22;31402;44.752;-0.374;2022-11-04T07:00:35;12.80;99.90
45693;DHT22;31402;44.752;-0.374;2022-11-04T07:03:01;12.80;99.90
45693;DHT22;31402;44.752;-0.374;2022-11-04T07:05:27;12.90;99.90
45693;DHT22;31402;44.752;-0.374;2022-11-04T07:07:53;12.90;99.90
45693;DHT22;31402;44.752;-0.374;2022-11-04T07:10:19;12.90;99.90
45693;DHT22;31402;44.752;-0.374;2022-11-04T07:12:45;12.90;99.90
45693;DHT22;31402;44.752;-0.374;2022-11-04T07:15:11;12.90;99.90
45693;DHT22;31402;44.752;-0.374;2022-11-04T07:17:37;12.90;99.90
45693;DHT22;31402;44.752;-0.374;2022-11-04T07:20:03;13.00;99.90
45693;DHT22;31402;44.752;-0.374;2022-11-04T07:22:30;13.00;99.90
45693;DHT22;31402;44.752;-0.374;2022-11-04T07:24:56;13.00;99.90
45693;DHT22;31402;44.752;-0.374;2022-11-04T07:27:22;13.00;99.90
45693;DHT22;31402;44.752;-0.374;2022-11-04T07:29:47;13.00;99.90
45693;DHT22;31402;44.752;-0.374;2022-11-04T07:32:13;13.00;99.90
45693;DHT22;31402;44.752;-0.374;2022-11-04T07:34:39;13.10;99.90
45693;DHT22;31402;44.752;-0.374;2022-11-04T07:37:05;13.10;99.90
45693;DHT22;31402;44.752;-0.374;2022-11-04T07:39:30;13.10;99.90
45693;DHT22;31402;44.752;-0.374;2022-11-04T07:41:56;13.10;99.90
45693;DHT22;31402;44.752;-0.374;2022-11-04T07:44:22;13.10;99.90
45693;DHT22;31402;44.752;-0.374;2022-11-04T07:46:48;13.70;99.90
45693;DHT22;31402;44.752;-0.374;2022-11-04T07:49:14;14.50;99.90
45693;DHT22;31402;44.752;-0.374;2022-11-04T07:51:40;15.30;99.90
45693;DHT22;31402;44.752;-0.374;2022-11-04T07:54:06;16.00;99.40
45693;DHT22;31402;44.752;-0.374;2022-11-04T07:56:31;16.40;98.70
45693;DHT22;31402;44.752;-0.374;2022-11-04T07:58:57;16.50;98.60
45693;DHT22;31402;44.752;-0.374;2022-11-04T08:01:23;16.00;98.70
45693;DHT22;31402;44.752;-0.374;2022-11-04T08:03:50;15.60;98.90
45693;DHT22;31402;44.752;-0.374;2022-11-04T08:06:18;15.20;99.50
45693;DHT22;31402;44.752;-0.374;2022-11-04T08:08:44;14.80;99.70
45693;DHT22;31402;44.752;-0.374;2022-11-04T08:11:17;14.60;99.90
45693;DHT22;31402;44.752;-0.374;2022-11-04T08:13:44;14.50;99.90
45693;DHT22;31402;44.752;-0.374;2022-11-04T08:16:13;14.50;99.90
45693;DHT22;31402;44.752;-0.374;2022-11-04T08:18:40;14.60;99.90
45693;DHT22;31402;44.752;-0.374;2022-11-04T08:21:06;14.90;99.90
45693;DHT22;31402;44.752;-0.374;2022-11-04T08:23:32;15.30;99.90
45693;DHT22;31402;44.752;-0.374;2022-11-04T08:25:59;15.40;99.90
45693;DHT22;31402;44.752;-0.374;2022-11-04T08:28:26;15.30;99.90
45693;DHT22;31402;44.752;-0.374;2022-11-04T08:31:04;15.20;99.90
45693;DHT22;31402;44.752;-0.374;2022-11-04T08:33:31;15.10;99.90
45693;DHT22;31402;44.752;-0.374;2022-11-04T08:36:00;15.00;99.90
45693;DHT22;31402;44.752;-0.374;2022-11-04T08:38:26;15.20;99.90
45693;DHT22;31402;44.752;-0.374;2022-11-04T08:40:58;15.40;99.90
45693;DHT22;31402;44.752;-0.374;2022-11-04T08:43:24;15.60;99.90
45693;DHT22;31402;44.752;-0.374;2022-11-04T08:45:50;15.90;99.90
45693;DHT22;31402;44.752;-0.374;2022-11-04T08:48:16;16.10;99.90
45693;DHT22;31402;44.752;-0.374;2022-11-04T08:50:42;16.40;99.40
45693;DHT22;31402;44.752;-0.374;2022-11-04T08:53:08;16.60;99.60
45693;DHT22;31402;44.752;-0.374;2022-11-04T08:55:34;16.70;98.60
45693;DHT22;31402;44.752;-0.374;2022-11-04T08:58:00;16.90;99.00
45693;DHT22;31402;44.752;-0.374;2022-11-04T09:00:26;16.90;99.00
45693;DHT22;31402;44.752;-0.374;2022-11-04T09:02:52;17.10;98.50
45693;DHT22;31402;44.752;-0.374;2022-11-04T09:05:20;17.20;98.40
45693;DHT22;31402;44.752;-0.374;2022-11-04T09:07:46;17.10;98.30
45693;DHT22;31402;44.752;-0.374;2022-11-04T09:10:11;17.10;98.30
45693;DHT22;31402;44.752;-0.374;2022-11-04T09:12:37;16.90;98.30
45693;DHT22;31402;44.752;-0.374;2022-11-04T09:15:04;16.80;98.50
45693;DHT22;31402;44.752;-0.374;2022-11-04T09:17:32;16.70;98.50
45693;DHT22;31402;44.752;-0.374;2022-11-04T09:19:58;16.50;98.70
45693;DHT22;31402;44.752;-0.374;2022-11-04T09:22:24;16.40;98.80
45693;DHT22;31402;44.752;-0.374;2022-11-04T09:24:50;16.20;98.70
45693;DHT22;31402;44.752;-0.374;2022-11-04T09:27:15;16.20;99.00
45693;DHT22;31402;44.752;-0.374;2022-11-04T09:29:41;16.10;98.90
45693;DHT22;31402;44.752;-0.374;2022-11-04T09:32:07;16.00;99.10
45693;DHT22;31402;44.752;-0.374;2022-11-04T09:34:34;15.90;99.10
45693;DHT22;31402;44.752;-0.374;2022-11-04T09:37:00;15.90;99.10
45693;DHT22;31402;44.752;-0.374;2022-11-04T09:39:26;15.70;99.40
45693;DHT22;31402;44.752;-0.374;2022-11-04T09:45:11;15.50;99.70
45693;DHT22;31402;44.752;-0.374;2022-11-04T09:47:39;15.50;99.90
45693;DHT22;31402;44.752;-0.374;2022-11-04T09:50:09;15.40;99.90
45693;DHT22;31402;44.752;-0.374;2022-11-04T09:52:41;15.70;99.90
45693;DHT22;31402;44.752;-0.374;2022-11-04T09:55:20;15.90;99.90
45693;DHT22;31402;44.752;-0.374;2022-11-04T09:57:53;15.90;99.90
45693;DHT22;31402;44.752;-0.374;2022-11-04T10:00:20;15.80;99.90
45693;DHT22;31402;44.752;-0.374;2022-11-04T10:22:31;16.30;99.90
45693;DHT22;31402;44.752;-0.374;2022-11-04T10:25:42;16.60;99.90
45693;DHT22;31402;44.752;-0.374;2022-11-04T10:28:11;16.60;99.80
45693;DHT22;31402;44.752;-0.374;2022-11-04T10:30:40;16.60;99.90
45693;DHT22;31402;44.752;-0.374;2022-11-04T10:33:25;16.70;99.80
45693;DHT22;31402;44.752;-0.374;2022-11-04T10:35:57;16.70;99.60
45693;DHT22;31402;44.752;-0.374;2022-11-04T10:38:38;16.80;99.70
45693;DHT22;31402;44.752;-0.374;2022-11-04T10:41:32;16.80;99.60
45693;DHT22;31402;44.752;-0.374;2022-11-04T10:44:14;16.90;99.70
45693;DHT22;31402;44.752;-0.374;2022-11-04T10:52:36;17.40;99.10
45693;DHT22;31402;44.752;-0.374;2022-11-04T10:55:14;17.50;99.00
45693;DHT22;31402;44.752;-0.374;2022-11-04T10:57:40;17.60;99.30
45693;DHT22;31402;44.752;-0.374;2022-11-04T11:00:07;17.90;99.20
45693;DHT22;31402;44.752;-0.374;2022-11-04T11:05:21;18.10;99.20
45693;DHT22;31402;44.752;-0.374;2022-11-04T11:07:50;18.10;98.70
45693;DHT22;31402;44.752;-0.374;2022-11-04T11:10:26;18.10;98.90
45693;DHT22;31402;44.752;-0.374;2022-11-04T11:13:04;18.00;98.70
45693;DHT22;31402;44.752;-0.374;2022-11-04T11:15:36;18.00;98.30
45693;DHT22;31402;44.752;-0.374;2022-11-04T11:18:18;18.20;98.10
45693;DHT22;31402;44.752;-0.374;2022-11-04T11:21:15;18.20;97.80
45693;DHT22;31402;44.752;-0.374;2022-11-04T11:23:47;18.10;97.80
45693;DHT22;31402;44.752;-0.374;2022-11-04T11:26:18;18.00;97.50
45693;DHT22;31402;44.752;-0.374;2022-11-04T11:28:50;17.80;96.90
45693;DHT22;31402;44.752;-0.374;2022-11-04T11:31:17;17.70;96.90
45693;DHT22;31402;44.752;-0.374;2022-11-04T11:33:56;17.60;96.80
45693;DHT22;31402;44.752;-0.374;2022-11-04T11:36:30;17.40;96.90
45693;DHT22;31402;44.752;-0.374;2022-11-04T11:39:15;17.40;96.50
45693;DHT22;31402;44.752;-0.374;2022-11-04T11:42:09;17.50;97.10
45693;DHT22;31402;44.752;-0.374;2022-11-04T11:44:48;17.60;96.80
45693;DHT22;31402;44.752;-0.374;2022-11-04T11:50:27;18.00;96.00
45693;DHT22;31402;44.752;-0.374;2022-11-04T11:53:16;18.00;95.90
45693;DHT22;31402;44.752;-0.374;2022-11-04T11:58:45;18.20;95.50
45693;DHT22;31402;44.752;-0.374;2022-11-04T12:01:23;18.30;95.80
45693;DHT22;31402;44.752;-0.374;2022-11-04T12:03:51;18.40;95.70
45693;DHT22;31402;44.752;-0.374;2022-11-04T12:06:45;18.60;96.10
45693;DHT22;31402;44.752;-0.374;2022-11-04T12:09:36;18.70;94.80
45693;DHT22;31402;44.752;-0.374;2022-11-04T12:12:18;18.70;95.00
45693;DHT22;31402;44.752;-0.374;2022-11-04T12:31:15;19.00;93.40
45693;DHT22;31402;44.752;-0.374;2022-11-04T12:55:34;18.10;93.70
45693;DHT22;31402;44.752;-0.374;2022-11-04T13:01:01;18.10;93.60
45693;DHT22;31402;44.752;-0.374;2022-11-04T13:06:19;18.30;93.80
45693;DHT22;31402;44.752;-0.374;2022-11-04T13:08:53;18.40;93.80
45693;DHT22;31402;44.752;-0.374;2022-11-04T13:11:40;18.40;93.80
45693;DHT22;31402;44.752;-0.374;2022-11-04T13:16:46;18.50;93.20
45693;DHT22;31402;44.752;-0.374;2022-11-04T13:22:14;18.20;92.80
45693;DHT22;31402;44.752;-0.374;2022-11-04T13:27:42;18.10;92.90
45693;DHT22;31402;44.752;-0.374;2022-11-04T13:30:22;17.90;92.80
45693;DHT22;31402;44.752;-0.374;2022-11-04T13:36:11;17.90;93.10
45693;DHT22;31402;44.752;-0.374;2022-11-04T13:38:44;18.00;93.40
45693;DHT22;31402;44.752;-0.374;2022-11-04T13:44:34;18.10;92.70
45693;DHT22;31402;44.752;-0.374;2022-11-04T13:47:01;18.20;92.40
45693;DHT22;31402;44.752;-0.374;2022-11-04T13:49:31;18.40;92.30
45693;DHT22;31402;44.752;-0.374;2022-11-04T13:52:09;18.40;92.90
45693;DHT22;31402;44.752;-0.374;2022-11-04T13:54:45;18.40;92.40
45693;DHT22;31402;44.752;-0.374;2022-11-04T14:02:45;18.40;91.80
45693;DHT22;31402;44.752;-0.374;2022-11-04T14:18:45;18.30;92.10
45693;DHT22;31402;44.752;-0.374;2022-11-04T14:21:14;18.40;92.10
45693;DHT22;31402;44.752;-0.374;2022-11-04T14:23:45;18.40;92.40
45693;DHT22;31402;44.752;-0.374;2022-11-04T14:26:20;18.30;92.20
45693;DHT22;31402;44.752;-0.374;2022-11-04T14:28:49;18.20;92.10
45693;DHT22;31402;44.752;-0.374;2022-11-04T14:31:41;18.20;92.00
45693;DHT22;31402;44.752;-0.374;2022-11-04T14:34:26;18.20;91.80
45693;DHT22;31402;44.752;-0.374;2022-11-04T14:36:57;18.20;92.40
45693;DHT22;31402;44.752;-0.374;2022-11-04T14:39:35;18.10;91.70
45693;DHT22;31402;44.752;-0.374;2022-11-04T14:42:07;18.00;91.80
45693;DHT22;31402;44.752;-0.374;2022-11-04T14:54:47;17.60;92.10
45693;DHT22;31402;44.752;-0.374;2022-11-04T14:57:19;17.50;91.90
45693;DHT22;31402;44.752;-0.374;2022-11-04T14:59:45;17.40;92.20
45693;DHT22;31402;44.752;-0.374;2022-11-04T15:02:23;17.40;92.40
45693;DHT22;31402;44.752;-0.374;2022-11-04T15:04:56;17.40;92.90
45693;DHT22;31402;44.752;-0.374;2022-11-04T15:07:38;17.40;92.50
45693;DHT22;31402;44.752;-0.374;2022-11-04T15:10:23;17.30;92.60
45693;DHT22;31402;44.752;-0.374;2022-11-04T15:12:50;17.20;92.90
45693;DHT22;31402;44.752;-0.374;2022-11-04T15:15:40;17.20;92.60
45693;DHT22;31402;44.752;-0.374;2022-11-04T15:18:18;17.30;93.10
45693;DHT22;31402;44.752;-0.374;2022-11-04T15:20:48;17.20;93.00
45693;DHT22;31402;44.752;-0.374;2022-11-04T15:23:21;17.20;93.00
45693;DHT22;31402;44.752;-0.374;2022-11-04T15:25:49;17.20;92.90
45693;DHT22;31402;44.752;-0.374;2022-11-04T15:28:29;17.10;92.90
45693;DHT22;31402;44.752;-0.374;2022-11-04T15:33:44;17.00;93.30
45693;DHT22;31402;44.752;-0.374;2022-11-04T15:36:15;16.90;93.40
45693;DHT22;31402;44.752;-0.374;2022-11-04T15:38:46;16.90;93.50
45693;DHT22;31402;44.752;-0.374;2022-11-04T15:41:14;16.90;93.40
45693;DHT22;31402;44.752;-0.374;2022-11-04T15:44:01;16.90;93.50
45693;DHT22;31402;44.752;-0.374;2022-11-04T15:46:27;16.80;93.70
45693;DHT22;31402;44.752;-0.374;2022-11-04T15:49:05;16.70;93.60
45693;DHT22;31402;44.752;-0.374;2022-11-04T15:51:39;16.70;93.80
45693;DHT22;31402;44.752;-0.374;2022-11-04T15:54:45;16.70;93.60
45693;DHT22;31402;44.752;-0.374;2022-11-04T15:57:17;16.70;93.80
45693;DHT22;31402;44.752;-0.374;2022-11-04T16:00:03;16.80;93.60
45693;DHT22;31402;44.752;-0.374;2022-11-04T16:07:43;16.50;93.80
45693;DHT22;31402;44.752;-0.374;2022-11-04T16:10:31;16.50;93.90
45693;DHT22;31402;44.752;-0.374;2022-11-04T16:12:59;16.50;93.70
45693;DHT22;31402;44.752;-0.374;2022-11-04T16:18:21;16.40;93.80
45693;DHT22;31402;44.752;-0.374;2022-11-04T16:20:49;16.40;93.90
45693;DHT22;31402;44.752;-0.374;2022-11-04T16:23:22;16.40;93.90
45693;DHT22;31402;44.752;-0.374;2022-11-04T16:26:15;16.50;94.00
45693;DHT22;31402;44.752;-0.374;2022-11-04T16:28:41;16.50;94.00
45693;DHT22;31402;44.752;-0.374;2022-11-04T16:33:51;16.40;94.20
45693;DHT22;31402;44.752;-0.374;2022-11-04T16:36:17;16.30;94.40
45693;DHT22;31402;44.752;-0.374;2022-11-04T16:38:57;16.30;94.40
45693;DHT22;31402;44.752;-0.374;2022-11-04T16:41:24;16.30;94.70
45693;DHT22;31402;44.752;-0.374;2022-11-04T16:43:51;16.20;94.60
45693;DHT22;31402;44.752;-0.374;2022-11-04T16:46:18;16.10;94.50
45693;DHT22;31402;44.752;-0.374;2022-11-04T16:48:44;16.10;94.60
45693;DHT22;31402;44.752;-0.374;2022-11-04T16:51:21;16.10;94.60
45693;DHT22;31402;44.752;-0.374;2022-11-04T16:53:50;16.00;94.60
45693;DHT22;31402;44.752;-0.374;2022-11-04T16:56:19;16.00;94.60
45693;DHT22;31402;44.752;-0.374;2022-11-04T16:58:46;16.00;94.60
45693;DHT22;31402;44.752;-0.374;2022-11-04T17:01:12;15.90;94.50
45693;DHT22;31402;44.752;-0.374;2022-11-04T17:03:39;16.00;94.50
45693;DHT22;31402;44.752;-0.374;2022-11-04T17:06:05;16.00;94.60
45693;DHT22;31402;44.752;-0.374;2022-11-04T17:08:31;15.90;94.60
45693;DHT22;31402;44.752;-0.374;2022-11-04T17:10:57;15.90;94.60
45693;DHT22;31402;44.752;-0.374;2022-11-04T17:13:23;15.90;95.20
45693;DHT22;31402;44.752;-0.374;2022-11-04T17:15:49;15.80;95.30
45693;DHT22;31402;44.752;-0.374;2022-11-04T17:18:16;15.80;95.00
45693;DHT22;31402;44.752;-0.374;2022-11-04T17:20:51;15.80;94.80
45693;DHT22;31402;44.752;-0.374;2022-11-04T17:23:17;15.80;94.50
45693;DHT22;31402;44.752;-0.374;2022-11-04T17:25:44;15.80;94.50
45693;DHT22;31402;44.752;-0.374;2022-11-04T17:28:10;15.80;94.50
45693;DHT22;31402;44.752;-0.374;2022-11-04T17:30:36;15.70;94.40
45693;DHT22;31402;44.752;-0.374;2022-11-04T17:33:02;15.70;94.50
45693;DHT22;31402;44.752;-0.374;2022-11-04T17:35:36;15.60;94.60
45693;DHT22;31402;44.752;-0.374;2022-11-04T17:38:02;15.60;94.60
45693;DHT22;31402;44.752;-0.374;2022-11-04T17:40:28;15.60;94.60
45693;DHT22;31402;44.752;-0.374;2022-11-04T17:42:54;15.50;94.70
45693;DHT22;31402;44.752;-0.374;2022-11-04T17:45:39;15.50;94.70
45693;DHT22;31402;44.752;-0.374;2022-11-04T17:48:05;15.40;94.70
45693;DHT22;31402;44.752;-0.374;2022-11-04T17:50:32;15.40;94.90
45693;DHT22;31402;44.752;-0.374;2022-11-04T17:52:59;15.40;94.90
45693;DHT22;31402;44.752;-0.374;2022-11-04T17:55:24;15.40;94.90
45693;DHT22;31402;44.752;-0.374;2022-11-04T17:57:50;15.40;94.90
45693;DHT22;31402;44.752;-0.374;2022-11-04T18:00:16;15.30;94.80
45693;DHT22;31402;44.752;-0.374;2022-11-04T18:02:43;15.30;94.80
45693;DHT22;31402;44.752;-0.374;2022-11-04T18:05:09;15.40;94.70
45693;DHT22;31402;44.752;-0.374;2022-11-04T18:07:35;15.30;94.60
45693;DHT22;31402;44.752;-0.374;2022-11-04T18:10:01;15.30;94.80
45693;DHT22;31402;44.752;-0.374;2022-11-04T18:12:26;15.20;94.70
45693;DHT22;31402;44.752;-0.374;2022-11-04T18:15:03;15.10;95.30
45693;DHT22;31402;44.752;-0.374;2022-11-04T18:17:29;15.10;95.00
45693;DHT22;31402;44.752;-0.374;2022-11-04T18:19:55;15.10;94.80
45693;DHT22;31402;44.752;-0.374;2022-11-04T18:22:21;15.10;94.80
45693;DHT22;31402;44.752;-0.374;2022-11-04T18:24:47;15.10;95.10
45693;DHT22;31402;44.752;-0.374;2022-11-04T18:27:15;15.00;95.00
45693;DHT22;31402;44.752;-0.374;2022-11-04T18:29:41;15.00;95.00
45693;DHT22;31402;44.752;-0.374;2022-11-04T18:32:07;15.00;95.10
45693;DHT22;31402;44.752;-0.374;2022-11-04T18:34:33;15.00;95.20